sensor_id;sensor_type;location;lat;lon;timestamp;pressure;altitude;pressure_sealevel;temperature;humidity
44144;BME280;43510;51.920;4.492;2023-02-04T00:02:01;66982.84;;;10.15;100.00
44144;BME280;43510;51.920;4.492;2023-02-04T00:04:27;66985.47;;;10.15;100.00
44144;BME280;43510;51.920;4.492;2023-02-04T00:06:53;66990.13;;;10.22;100.00
44144;BME280;43510;51.920;4.492;2023-02-04T00:09:18;66995.13;;;10.27;100.00
44144;BME280;43510;51.920;4.492;2023-02-04T00:11:43;67001.13;;;10.30;100.00
44144;BME280;43510;51.920;4.492;2023-02-04T00:14:09;67002.22;;;10.31;100.00
44144;BME280;43510;51.920;4.492;2023-02-04T00:16:35;67008.94;;;10.37;100.00
44144;BME280;43510;51.920;4.492;2023-02-04T00:19:00;67010.75;;;10.41;100.00
44144;BME280;43510;51.920;4.492;2023-02-04T00:21:28;67014.66;;;10.44;100.00
44144;BME280;43510;51.920;4.492;2023-02-04T00:23:54;67012.44;;;10.42;100.00
44144;BME280;43510;51.920;4.492;2023-02-04T00:26:20;67007.97;;;10.38;100.00
44144;BME280;43510;51.920;4.492;2023-02-04T00:28:45;67020.41;;;10.52;100.00
44144;BME280;43510;51.920;4.492;2023-02-04T00:31:10;67034.97;;;10.58;100.00
44144;BME280;43510;51.920;4.492;2023-02-04T00:33:36;67034.03;;;10.59;100.00
44144;BME280;43510;51.920;4.492;2023-02-04T00:36:01;67040.16;;;10.65;100.00
44144;BME280;43510;51.920;4.492;2023-02-04T00:38:27;67039.03;;;10.64;100.00
44144;BME280;43510;51.920;4.492;2023-02-04T00:40:52;67043.09;;;10.70;100.00
44144;BME280;43510;51.920;4.492;2023-02-04T00:43:17;67038.25;;;10.68;100.00
44144;BME280;43510;51.920;4.492;2023-02-04T00:45:43;67049.81;;;10.76;100.00
44144;BME280;43510;51.920;4.492;2023-02-04T00:48:11;67046.44;;;10.73;100.00
44144;BME280;43510;51.920;4.492;2023-02-04T00:50:36;67037.34;;;10.62;100.00
44144;BME280;43510;51.920;4.492;2023-02-04T00:53:04;67042.22;;;10.64;100.00
44144;BME280;43510;51.920;4.492;2023-02-04T00:55:31;67045.69;;;10.77;100.00
44144;BME280;43510;51.920;4.492;2023-02-04T00:57:57;67059.28;;;10.85;100.00
44144;BME280;43510;51.920;4.492;2023-02-04T01:00:23;67059.28;;;10.85;100.00
44144;BME280;43510;51.920;4.492;2023-02-04T01:02:48;67063.56;;;10.86;100.00
44144;BME280;43510;51.920;4.492;2023-02-04T01:05:14;67059.84;;;10.85;100.00
44144;BME280;43510;51.920;4.492;2023-02-04T01:07:39;67068.44;;;10.88;100.00
44144;BME280;43510;51.920;4.492;2023-02-04T01:10:04;67059.44;;;10.87;100.00
44144;BME280;43510;51.920;4.492;2023-02-04T01:12:30;67060.97;;;10.86;100.00
44144;BME280;43510;51.920;4.492;2023-02-04T01:14:55;67062.47;;;10.85;100.00
44144;BME280;43510;51.920;4.492;2023-02-04T01:17:21;67057.94;;;10.88;100.00
44144;BME280;43510;51.920;4.492;2023-02-04T01:19:46;67063.19;;;10.88;100.00
44144;BME280;43510;51.920;4.492;2023-02-04T01:22:12;67067.66;;;10.92;100.00
44144;BME280;43510;51.920;4.492;2023-02-04T01:24:38;67066.94;;;10.89;100.00
44144;BME280;43510;51.920;4.492;2023-02-04T01:27:03;67068.03;;;10.90;100.00
44144;BME280;43510;51.920;4.492;2023-02-04T01:29:29;67066.53;;;10.91;100.00
44144;BME280;43510;51.920;4.492;2023-02-04T01:31:54;67068.78;;;10.93;100.00
44144;BME280;43510;51.920;4.492;2023-02-04T01:34:21;67072.34;;;10.92;100.00
44144;BME280;43510;51.920;4.492;2023-02-04T01:36:46;67066.53;;;10.91;100.00
44144;BME280;43510;51.920;4.492;2023-02-04T01:39:12;67065.41;;;10.90;100.00
44144;BME280;43510;51.920;4.492;2023-02-04T01:41:38;67064.53;;;10.85;100.00
44144;BME280;43510;51.920;4.492;2023-02-04T01:44:06;67058.56;;;10.82;100.00
44144;BME280;43510;51.920;4.492;2023-02-04T01:46:31;67062.06;;;10.87;100.00
44144;BME280;43510;51.920;4.492;2023-02-04T01:49:00;67054.25;;;10.80;100.00
44144;BME280;43510;51.920;4.492;2023-02-04T01:51:27;67047.41;;;10.72;100.00
44144;BME280;43510;51.920;4.492;2023-02-04T01:53:54;67052.19;;;10.81;100.00
44144;BME280;43510;51.920;4.492;2023-02-04T01:56:25;67062.88;;;10.83;100.00
44144;BME280;43510;51.920;4.492;2023-02-04T01:58:51;67054.09;;;10.78;100.00
44144;BME280;43510;51.920;4.492;2023-02-04T02:04:03;67053.31;;;10.82;100.00
44144;BME280;43510;51.920;4.492;2023-02-04T02:06:29;67052.59;;;10.79;100.00
44144;BME280;43510;51.920;4.492;2023-02-04T02:08:55;67051.47;;;10.78;100.00
44144;BME280;43510;51.920;4.492;2023-02-04T02:11:23;67054.09;;;10.78;100.00
44144;BME280;43510;51.920;4.492;2023-02-04T02:13:50;67052.59;;;10.79;100.00
44144;BME280;43510;51.920;4.492;2023-02-04T02:16:16;67051.88;;;10.76;100.00
44144;BME280;43510;51.920;4.492;2023-02-04T02:18:42;67049.25;;;10.76;100.00
44144;BME280;43510;51.920;4.492;2023-02-04T02:21:08;67051.69;;;10.73;100.00
44144;BME280;43510;51.920;4.492;2023-02-04T02:23:53;67058.19;;;10.84;100.00
44144;BME280;43510;51.920;4.492;2023-02-04T02:26:21;67044.22;;;10.71;100.00
44144;BME280;43510;51.920;4.492;2023-02-04T02:28:48;67048.13;;;10.75;100.00
44144;BME280;43510;51.920;4.492;2023-02-04T02:31:15;67054.66;;;10.78;100.00
44144;BME280;43510;51.920;4.492;2023-02-04T02:33:41;67059.13;;;10.82;100.00
44144;BME280;43510;51.920;4.492;2023-02-04T02:36:07;67056.66;;;10.85;100.00
44144;BME280;43510;51.920;4.492;2023-02-04T02:38:33;67066.75;;;10.87;100.00
44144;BME280;43510;51.920;4.492;2023-02-04T02:40:58;67061.34;;;10.84;100.00
44144;BME280;43510;51.920;4.492;2023-02-04T02:43:26;67058.19;;;10.84;100.00
44144;BME280;43510;51.920;4.492;2023-02-04T02:45:53;67052.03;;;10.78;100.00
44144;BME280;43510;51.920;4.492;2023-02-04T02:48:21;67055.38;;;10.81;100.00
44144;BME280;43510;51.920;4.492;2023-02-04T02:50:47;67052.03;;;10.78;100.00
44144;BME280;43510;51.920;4.492;2023-02-04T02:53:15;67051.09;;;10.80;100.00
44144;BME280;43510;51.920;4.492;2023-02-04T02:55:42;67051.31;;;10.75;100.00
44144;BME280;43510;51.920;4.492;2023-02-04T02:58:34;67059.84;;;10.85;100.00
44144;BME280;43510;51.920;4.492;2023-02-04T03:01:02;67050.75;;;10.75;100.00
44144;BME280;43510;51.920;4.492;2023-02-04T03:03:32;67048.34;;;10.70;100.00
44144;BME280;43510;51.920;4.492;2023-02-04T03:06:11;67052.44;;;10.76;100.00
44144;BME280;43510;51.920;4.492;2023-02-04T03:08:37;67044.06;;;10.69;100.00
44144;BME280;43510;51.920;4.492;2023-02-04T03:11:04;67036.41;;;10.64;100.00
44144;BME280;43510;51.920;4.492;2023-02-04T03:13:30;67033.06;;;10.61;100.00
44144;BME280;43510;51.920;4.492;2023-02-04T03:15:56;67026.03;;;10.50;100.00
44144;BME280;43510;51.920;4.492;2023-02-04T03:18:22;67025.31;;;10.47;100.00
44144;BME280;43510;51.920;4.492;2023-02-04T03:20:49;67025.66;;;10.52;100.00
44144;BME280;43510;51.920;4.492;2023-02-04T03:23:15;67018.56;;;10.48;100.00
44144;BME280;43510;51.920;4.492;2023-02-04T03:25:41;67027.88;;;10.54;100.00
44144;BME280;43510;51.920;4.492;2023-02-04T03:28:07;67034.97;;;10.58;100.00
44144;BME280;43510;51.920;4.492;2023-02-04T03:30:33;67036.09;;;10.59;100.00
44144;BME280;43510;51.920;4.492;2023-02-04T03:32:58;67033.84;;;10.57;100.00
44144;BME280;43510;51.920;4.492;2023-02-04T03:35:24;67030.84;;;10.59;100.00
44144;BME280;43510;51.920;4.492;2023-02-04T03:37:49;67027.47;;;10.56;100.00
44144;BME280;43510;51.920;4.492;2023-02-04T03:40:18;67027.72;;;10.51;100.00
44144;BME280;43510;51.920;4.492;2023-02-04T03:42:43;67027.88;;;10.54;100.00
44144;BME280;43510;51.920;4.492;2023-02-04T03:45:09;67021.19;;;10.48;100.00
44144;BME280;43510;51.920;4.492;2023-02-04T03:47:34;67020.22;;;10.49;100.00
44144;BME280;43510;51.920;4.492;2023-02-04T03:49:59;67022.47;;;10.51;100.00
44144;BME280;43510;51.920;4.492;2023-02-04T03:52:25;67020.78;;;10.50;100.00
44144;BME280;43510;51.920;4.492;2023-02-04T03:54:50;67027.88;;;10.54;100.00
44144;BME280;43510;51.920;4.492;2023-02-04T03:57:15;67026.59;;;10.50;100.00
44144;BME280;43510;51.920;4.492;2023-02-04T03:59:42;67027.47;;;10.56;100.00
44144;BME280;43510;51.920;4.492;2023-02-04T04:02:07;67028.97;;;10.55;100.00
44144;BME280;43510;51.920;4.492;2023-02-04T04:04:33;67021.91;;;10.51;100.00
44144;BME280;43510;51.920;4.492;2023-02-04T04:06:58;67012.59;;;10.45;100.00
44144;BME280;43510;51.920;4.492;2023-02-04T04:09:23;67020.06;;;10.47;100.00
44144;BME280;43510;51.920;4.492;2023-02-04T04:11:49;67013.94;;;10.41;100.00
44144;BME280;43510;51.920;4.492;2023-02-04T04:14:14;66997.19;;;10.26;100.00
44144;BME280;43510;51.920;4.492;2023-02-04T04:16:40;67007.41;;;10.38;100.00
44144;BME280;43510;51.920;4.492;2023-02-04T04:19:05;67016.91;;;10.46;100.00
44144;BME280;43510;51.920;4.492;2023-02-04T04:21:40;67016.34;;;10.46;100.00
44144;BME280;43510;51.920;4.492;2023-02-04T04:24:05;67023.03;;;10.52;100.00
44144;BME280;43510;51.920;4.492;2023-02-04T04:26:32;67024.72;;;10.53;100.00
44144;BME280;43510;51.920;4.492;2023-02-04T04:28:57;67023.41;;;10.50;100.00
44144;BME280;43510;51.920;4.492;2023-02-04T04:31:23;67037.75;;;10.60;100.00
44144;BME280;43510;51.920;4.492;2023-02-04T04:33:48;67024.16;;;10.53;100.00
44144;BME280;43510;51.920;4.492;2023-02-04T04:36:13;67045.72;;;10.70;100.00
44144;BME280;43510;51.920;4.492;2023-02-04T04:38:39;67042.94;;;10.68;100.00
44144;BME280;43510;51.920;4.492;2023-02-04T04:41:04;67031.41;;;10.59;100.00
44144;BME280;43510;51.920;4.492;2023-02-04T04:43:29;67044.22;;;10.71;100.00
44144;BME280;43510;51.920;4.492;2023-02-04T04:45:55;67037.53;;;10.65;100.00
44144;BME280;43510;51.920;4.492;2023-02-04T04:48:20;67023.03;;;10.52;100.00
44144;BME280;43510;51.920;4.492;2023-02-04T04:50:46;67037.91;;;10.63;100.00
44144;BME280;43510;51.920;4.492;2023-02-04T04:53:11;67038.31;;;10.61;100.00
44144;BME280;43510;51.920;4.492;2023-02-04T04:55:37;67034.19;;;10.62;100.00
44144;BME280;43510;51.920;4.492;2023-02-04T04:58:05;67045.72;;;10.70;100.00
44144;BME280;43510;51.920;4.492;2023-02-04T05:00:31;67047.56;;;10.74;100.00
44144;BME280;43510;51.920;4.492;2023-02-04T05:02:56;67039.19;;;10.67;100.00
44144;BME280;43510;51.920;4.492;2023-02-04T05:05:21;67054.25;;;10.80;100.00
44144;BME280;43510;51.920;4.492;2023-02-04T05:07:47;67039.75;;;10.67;100.00
44144;BME280;43510;51.920;4.492;2023-02-04T05:10:12;67044.78;;;10.72;100.00
44144;BME280;43510;51.920;4.492;2023-02-04T05:12:37;67064.69;;;10.87;100.00
44144;BME280;43510;51.920;4.492;2023-02-04T05:15:03;67059.44;;;10.87;100.00
44144;BME280;43510;51.920;4.492;2023-02-04T05:17:29;67044.38;;;10.74;100.00
44144;BME280;43510;51.920;4.492;2023-02-04T05:19:54;67058.56;;;10.82;100.00
44144;BME280;43510;51.920;4.492;2023-02-04T05:22:20;67065.63;;;10.86;100.00
44144;BME280;43510;51.920;4.492;2023-02-04T05:24:45;67063.19;;;10.88;100.00
44144;BME280;43510;51.920;4.492;2023-02-04T05:27:10;67059.84;;;10.85;100.00
44144;BME280;43510;51.920;4.492;2023-02-04T05:29:36;67063.19;;;10.88;100.00
44144;BME280;43510;51.920;4.492;2023-02-04T05:32:01;67063.19;;;10.88;100.00
44144;BME280;43510;51.920;4.492;2023-02-04T05:34:26;67061.50;;;10.87;100.00
44144;BME280;43510;51.920;4.492;2023-02-04T05:36:54;67068.22;;;10.93;100.00
44144;BME280;43510;51.920;4.492;2023-02-04T05:39:19;67056.50;;;10.82;100.00
44144;BME280;43510;51.920;4.492;2023-02-04T05:41:44;67060.25;;;10.83;100.00
44144;BME280;43510;51.920;4.492;2023-02-04T05:44:10;67051.31;;;10.75;100.00
44144;BME280;43510;51.920;4.492;2023-02-04T05:46:35;67058.75;;;10.84;100.00
44144;BME280;43510;51.920;4.492;2023-02-04T05:49:01;67064.53;;;10.85;100.00
44144;BME280;43510;51.920;4.492;2023-02-04T05:51:33;67073.06;;;10.95;100.00
44144;BME280;43510;51.920;4.492;2023-02-04T05:53:58;67073.63;;;10.95;100.00
44144;BME280;43510;51.920;4.492;2023-02-04T05:56:23;67057.63;;;10.83;100.00
44144;BME280;43510;51.920;4.492;2023-02-04T05:58:49;67066.53;;;10.91;100.00
44144;BME280;43510;51.920;4.492;2023-02-04T06:01:15;67068.78;;;10.93;100.00
44144;BME280;43510;51.920;4.492;2023-02-04T06:03:40;67074.91;;;10.99;100.00
44144;BME280;43510;51.920;4.492;2023-02-04T06:06:06;67071.00;;;10.95;100.00
44144;BME280;43510;51.920;4.492;2023-02-04T06:08:31;67061.69;;;10.89;100.00
44144;BME280;43510;51.920;4.492;2023-02-04T06:10:56;67060.56;;;10.88;100.00
44144;BME280;43510;51.920;4.492;2023-02-04T06:13:22;67078.66;;;11.00;100.00
44144;BME280;43510;51.920;4.492;2023-02-04T06:15:48;67064.31;;;10.89;100.00
44144;BME280;43510;51.920;4.492;2023-02-04T06:18:13;67059.28;;;10.85;100.00
44144;BME280;43510;51.920;4.492;2023-02-04T06:20:39;67059.28;;;10.85;100.00
44144;BME280;43510;51.920;4.492;2023-02-04T06:23:04;67064.31;;;10.89;100.00
44144;BME280;43510;51.920;4.492;2023-02-04T06:25:29;67068.78;;;10.93;100.00
44144;BME280;43510;51.920;4.492;2023-02-04T06:27:55;67062.63;;;10.88;100.00
44144;BME280;43510;51.920;4.492;2023-02-04T06:30:21;67055.75;;;10.79;100.00
44144;BME280;43510;51.920;4.492;2023-02-04T06:32:49;67060.41;;;10.86;100.00
44144;BME280;43510;51.920;4.492;2023-02-04T06:35:15;67059.84;;;10.85;100.00
44144;BME280;43510;51.920;4.492;2023-02-04T06:37:41;67046.25;;;10.78;100.00
44144;BME280;43510;51.920;4.492;2023-02-04T06:40:06;67056.88;;;10.80;100.00
44144;BME280;43510;51.920;4.492;2023-02-04T06:42:33;67065.41;;;10.90;100.00
44144;BME280;43510;51.920;4.492;2023-02-04T06:44:58;67065.41;;;10.90;100.00
44144;BME280;43510;51.920;4.492;2023-02-04T06:47:25;67062.06;;;10.87;100.00
44144;BME280;43510;51.920;4.492;2023-02-04T06:49:50;67060.97;;;10.86;100.00
44144;BME280;43510;51.920;4.492;2023-02-04T06:52:15;67059.28;;;10.85;100.00
44144;BME280;43510;51.920;4.492;2023-02-04T06:54:47;67060.97;;;10.86;100.00
44144;BME280;43510;51.920;4.492;2023-02-04T06:57:13;67058.00;;;10.81;100.00
44144;BME280;43510;51.920;4.492;2023-02-04T06:59:39;67054.25;;;10.80;100.00
44144;BME280;43510;51.920;4.492;2023-02-04T07:02:06;67050.53;;;10.79;100.00
44144;BME280;43510;51.920;4.492;2023-02-04T07:04:32;67052.03;;;10.78;100.00
44144;BME280;43510;51.920;4.492;2023-02-04T07:06:58;67060.63;;;10.81;100.00
44144;BME280;43510;51.920;4.492;2023-02-04T07:09:24;67051.25;;;10.82;100.00
44144;BME280;43510;51.920;4.492;2023-02-04T07:11:49;67056.50;;;10.82;100.00
44144;BME280;43510;51.920;4.492;2023-02-04T07:14:15;67048.69;;;10.75;100.00
44144;BME280;43510;51.920;4.492;2023-02-04T07:16:40;67049.03;;;10.80;100.00
44144;BME280;43510;51.920;4.492;2023-02-04T07:19:06;67048.50;;;10.73;100.00
44144;BME280;43510;51.920;4.492;2023-02-04T07:21:31;67054.66;;;10.78;100.00
44144;BME280;43510;51.920;4.492;2023-02-04T07:23:56;67058.19;;;10.84;100.00
44144;BME280;43510;51.920;4.492;2023-02-04T07:26:22;67060.25;;;10.83;100.00
44144;BME280;43510;51.920;4.492;2023-02-04T07:28:47;67058.91;;;10.87;100.00
44144;BME280;43510;51.920;4.492;2023-02-04T07:31:13;67065.81;;;10.88;100.00
44144;BME280;43510;51.920;4.492;2023-02-04T07:33:38;67066.38;;;10.89;100.00
44144;BME280;43510;51.920;4.492;2023-02-04T07:36:04;67057.78;;;10.86;100.00
44144;BME280;43510;51.920;4.492;2023-02-04T07:38:29;67066.53;;;10.91;100.00
44144;BME280;43510;51.920;4.492;2023-02-04T07:40:54;67070.28;;;10.92;100.00
44144;BME280;43510;51.920;4.492;2023-02-04T07:43:20;67076.03;;;11.00;100.00
44144;BME280;43510;51.920;4.492;2023-02-04T07:45:46;67073.22;;;10.97;100.00
44144;BME280;43510;51.920;4.492;2023-02-04T07:48:11;67069.09;;;10.98;100.00
44144;BME280;43510;51.920;4.492;2023-02-04T07:50:36;67081.22;;;11.07;100.00
44144;BME280;43510;51.920;4.492;2023-02-04T07:53:02;67080.31;;;11.01;100.00
44144;BME280;43510;51.920;4.492;2023-02-04T07:55:43;67084.00;;;11.10;100.00
44144;BME280;43510;51.920;4.492;2023-02-04T07:58:13;67088.47;;;11.14;100.00
44144;BME280;43510;51.920;4.492;2023-02-04T08:00:39;67083.28;;;11.07;100.00
44144;BME280;43510;51.920;4.492;2023-02-04T08:03:05;67090.38;;;11.11;100.00
44144;BME280;43510;51.920;4.492;2023-02-04T08:05:30;67092.19;;;11.15;100.00
44144;BME280;43510;51.920;4.492;2023-02-04T08:07:56;67087.03;;;11.08;100.00
44144;BME280;43510;51.920;4.492;2023-02-04T08:10:22;67094.44;;;11.17;100.00
44144;BME280;43510;51.920;4.492;2023-02-04T08:12:48;67093.31;;;11.16;100.00
44144;BME280;43510;51.920;4.492;2023-02-04T08:15:28;67106.00;;;11.25;100.00
44144;BME280;43510;51.920;4.492;2023-02-04T08:17:54;67103.03;;;11.20;100.00
44144;BME280;43510;51.920;4.492;2023-02-04T08:20:19;67102.81;;;11.24;100.00
44144;BME280;43510;51.920;4.492;2023-02-04T08:22:45;67111.56;;;11.30;100.00
44144;BME280;43510;51.920;4.492;2023-02-04T08:25:17;67111.19;;;11.32;100.00
44144;BME280;43510;51.920;4.492;2023-02-04T08:27:44;67112.84;;;11.33;100.00
44144;BME280;43510;51.920;4.492;2023-02-04T08:30:10;67115.09;;;11.35;100.00
44144;BME280;43510;51.920;4.492;2023-02-04T08:32:35;67102.25;;;11.24;100.00
44144;BME280;43510;51.920;4.492;2023-02-04T08:35:01;67111.53;;;11.37;100.00
44144;BME280;43510;51.920;4.492;2023-02-04T08:37:26;67109.91;;;11.28;100.00
44144;BME280;43510;51.920;4.492;2023-02-04T08:39:59;67131.25;;;11.50;100.00
44144;BME280;43510;51.920;4.492;2023-02-04T08:42:25;67139.66;;;11.58;100.00
44144;BME280;43510;51.920;4.492;2023-02-04T08:44:50;67144.66;;;11.62;100.00
44144;BME280;43510;51.920;4.492;2023-02-04T08:47:16;67138.88;;;11.62;100.00
44144;BME280;43510;51.920;4.492;2023-02-04T08:49:44;67140.75;;;11.59;100.00
44144;BME280;43510;51.920;4.492;2023-02-04T08:54:45;67113.41;;;11.34;100.00
44144;BME280;43510;51.920;4.492;2023-02-04T08:57:10;67093.31;;;11.16;100.00
44144;BME280;43510;51.920;4.492;2023-02-04T08:59:35;67089.09;;;11.07;100.00
44144;BME280;43510;51.920;4.492;2023-02-04T09:02:01;67084.97;;;11.08;100.00
44144;BME280;43510;51.920;4.492;2023-02-04T09:04:30;67081.59;;;11.05;100.00
44144;BME280;43510;51.920;4.492;2023-02-04T09:06:56;67089.41;;;11.12;100.00
44144;BME280;43510;51.920;4.492;2023-02-04T09:09:21;67075.47;;;10.99;100.00
44144;BME280;43510;51.920;4.492;2023-02-04T09:11:46;67088.53;;;11.07;100.00
44144;BME280;43510;51.920;4.492;2023-02-04T12:12:51;67155.28;;;11.72;100.00
44144;BME280;43510;51.920;4.492;2023-02-04T12:15:21;67153.28;;;11.65;100.00
44144;BME280;43510;51.920;4.492;2023-02-04T12:23:00;67109.34;;;11.28;100.00
44144;BME280;43510;51.920;4.492;2023-02-04T12:25:26;67113.03;;;11.36;100.00
44144;BME280;43510;51.920;4.492;2023-02-04T13:01:32;67105.59;;;11.27;100.00
44144;BME280;43510;51.920;4.492;2023-02-04T13:03:58;67125.53;;;11.42;100.00
44144;BME280;43510;51.920;4.492;2023-02-04T13:06:26;67113.41;;;11.34;100.00
44144;BME280;43510;51.920;4.492;2023-02-04T13:08:52;67117.16;;;11.35;100.00
44144;BME280;43510;51.920;4.492;2023-02-04T13:34:35;67136.69;;;11.53;100.00
44144;BME280;43510;51.920;4.492;2023-02-04T13:37:11;67141.72;;;11.57;100.00
44144;BME280;43510;51.920;4.492;2023-02-04T13:39:37;67148.41;;;11.63;100.00
44144;BME280;43510;51.920;4.492;2023-02-04T13:52:23;67122.91;;;11.42;100.00
44144;BME280;43510;51.920;4.492;2023-02-04T14:18:26;67165.75;;;11.79;100.00
44144;BME280;43510;51.920;4.492;2023-02-04T14:20:52;67176.75;;;11.86;100.00
44144;BME280;43510;51.920;4.492;2023-02-04T14:23:18;67189.75;;;12.01;100.00
44144;BME280;43510;51.920;4.492;2023-02-04T14:25:50;67183.38;;;12.00;100.00
44144;BME280;43510;51.920;4.492;2023-02-04T14:28:17;67174.63;;;11.94;100.00
44144;BME280;43510;51.920;4.492;2023-02-04T14:30:42;67179.72;;;11.92;100.00
44144;BME280;43510;51.920;4.492;2023-02-04T14:33:08;67191.03;;;12.04;100.00
44144;BME280;43510;51.920;4.492;2023-02-04T14:35:35;67194.41;;;12.07;100.00
44144;BME280;43510;51.920;4.492;2023-02-04T14:38:07;67186.41;;;11.98;100.00
44144;BME280;43510;51.920;4.492;2023-02-04T14:40:35;67168.72;;;11.84;100.00
44144;BME280;43510;51.920;4.492;2023-02-04T14:43:11;67186.41;;;11.98;100.00
44144;BME280;43510;51.920;4.492;2023-02-04T14:45:37;67185.28;;;11.97;100.00
44144;BME280;43510;51.920;4.492;2023-02-04T14:48:04;67182.66;;;11.97;100.00
44144;BME280;43510;51.920;4.492;2023-02-04T14:50:29;67197.16;;;12.10;100.00
44144;BME280;43510;51.920;4.492;2023-02-04T14:53:04;67187.69;;;12.01;100.00
44144;BME280;43510;51.920;4.492;2023-02-04T14:55:34;67205.00;;;12.17;100.00
44144;BME280;43510;51.920;4.492;2023-02-04T14:58:00;67198.84;;;12.11;100.00
44144;BME280;43510;51.920;4.492;2023-02-04T15:00:25;67195.50;;;12.08;100.00
44144;BME280;43510;51.920;4.492;2023-02-04T15:02:51;67201.47;;;12.11;100.00
44144;BME280;43510;51.920;4.492;2023-02-04T15:05:17;67198.53;;;12.06;100.00
44144;BME280;43510;51.920;4.492;2023-02-04T15:07:43;67186.41;;;11.98;100.00
44144;BME280;43510;51.920;4.492;2023-02-04T15:10:09;67182.09;;;11.96;100.00
44144;BME280;43510;51.920;4.492;2023-02-04T15:12:35;67169.25;;;11.84;100.00
44144;BME280;43510;51.920;4.492;2023-02-04T15:15:04;67162.00;;;11.78;100.00
44144;BME280;43510;51.920;4.492;2023-02-04T15:17:30;67148.97;;;11.64;100.00
44144;BME280;43510;51.920;4.492;2023-02-04T15:19:55;67150.25;;;11.67;100.00
44144;BME280;43510;51.920;4.492;2023-02-04T15:22:21;67142.44;;;11.60;100.00
44144;BME280;43510;51.920;4.492;2023-02-04T15:24:56;67165.91;;;11.81;100.00
44144;BME280;43510;51.920;4.492;2023-02-04T15:27:30;67166.31;;;11.79;100.00
44144;BME280;43510;51.920;4.492;2023-02-04T15:29:55;67160.88;;;11.77;100.00
44144;BME280;43510;51.920;4.492;2023-02-04T15:32:21;67162.25;;;11.73;100.00
44144;BME280;43510;51.920;4.492;2023-02-04T15:34:53;67165.34;;;11.81;100.00
44144;BME280;43510;51.920;4.492;2023-02-04T15:37:19;67141.50;;;11.62;100.00
44144;BME280;43510;51.920;4.492;2023-02-04T15:39:44;67147.84;;;11.63;100.00
44144;BME280;43510;51.920;4.492;2023-02-04T15:42:31;67159.22;;;11.75;100.00
44144;BME280;43510;51.920;4.492;2023-02-04T15:44:59;67140.53;;;11.63;100.00
44144;BME280;43510;51.920;4.492;2023-02-04T15:47:31;67148.97;;;11.64;100.00
44144;BME280;43510;51.920;4.492;2023-02-04T15:49:56;67142.44;;;11.60;100.00
44144;BME280;43510;51.920;4.492;2023-02-04T15:52:21;67141.31;;;11.59;100.00
44144;BME280;43510;51.920;4.492;2023-02-04T15:54:55;67147.69;;;11.60;100.00
44144;BME280;43510;51.920;4.492;2023-02-04T15:57:21;67137.06;;;11.51;100.00
44144;BME280;43510;51.920;4.492;2023-02-04T15:59:47;67127.75;;;11.44;100.00
44144;BME280;43510;51.920;4.492;2023-02-04T16:02:13;67135.19;;;11.54;100.00
44144;BME280;43510;51.920;4.492;2023-02-04T16:04:38;67137.25;;;11.53;100.00
44144;BME280;43510;51.920;4.492;2023-02-04T16:07:05;67129.44;;;11.46;100.00
44144;BME280;43510;51.920;4.492;2023-02-04T16:09:33;67128.50;;;11.48;100.00
44144;BME280;43510;51.920;4.492;2023-02-04T16:11:58;67132.78;;;11.49;100.00
44144;BME280;43510;51.920;4.492;2023-02-04T16:14:24;67129.59;;;11.49;100.00
44144;BME280;43510;51.920;4.492;2023-02-04T16:16:49;67130.56;;;11.47;100.00
44144;BME280;43510;51.920;4.492;2023-02-04T16:19:15;67129.03;;;11.48;100.00
44144;BME280;43510;51.920;4.492;2023-02-04T16:21:40;67132.38;;;11.51;100.00
44144;BME280;43510;51.920;4.492;2023-02-04T16:24:06;67131.66;;;11.48;100.00
44144;BME280;43510;51.920;4.492;2023-02-04T16:26:33;67125.69;;;11.45;100.00
44144;BME280;43510;51.920;4.492;2023-02-04T16:29:27;67136.31;;;11.55;100.00
44144;BME280;43510;51.920;4.492;2023-02-04T16:31:53;67117.09;;;11.42;100.00
44144;BME280;43510;51.920;4.492;2023-02-04T16:34:24;67126.66;;;11.43;100.00
44144;BME280;43510;51.920;4.492;2023-02-04T16:36:50;67115.66;;;11.36;100.00
44144;BME280;43510;51.920;4.492;2023-02-04T16:39:15;67121.78;;;11.41;100.00
44144;BME280;43510;51.920;4.492;2023-02-04T16:41:42;67112.84;;;11.33;100.00
44144;BME280;43510;51.920;4.492;2023-02-04T16:44:08;67113.25;;;11.31;100.00
44144;BME280;43510;51.920;4.492;2023-02-04T16:46:33;67111.72;;;11.32;100.00
44144;BME280;43510;51.920;4.492;2023-02-04T16:49:05;67113.81;;;11.32;100.00
44144;BME280;43510;51.920;4.492;2023-02-04T16:51:30;67110.63;;;11.31;100.00
44144;BME280;43510;51.920;4.492;2023-02-04T16:53:55;67112.28;;;11.33;100.00
44144;BME280;43510;51.920;4.492;2023-02-04T16:56:31;67109.50;;;11.30;100.00
44144;BME280;43510;51.920;4.492;2023-02-04T16:59:03;67106.16;;;11.27;100.00
44144;BME280;43510;51.920;4.492;2023-02-04T17:01:30;67108.94;;;11.30;100.00
44144;BME280;43510;51.920;4.492;2023-02-04T17:03:55;67116.03;;;11.34;100.00
44144;BME280;43510;51.920;4.492;2023-02-04T17:06:40;67121.22;;;11.41;100.00
44144;BME280;43510;51.920;4.492;2023-02-04T17:09:06;67123.28;;;11.40;100.00
44144;BME280;43510;51.920;4.492;2023-02-04T17:11:31;67113.97;;;11.34;100.00
44144;BME280;43510;51.920;4.492;2023-02-04T17:14:08;67119.41;;;11.37;100.00
44144;BME280;43510;51.920;4.492;2023-02-04T17:16:35;67097.56;;;11.24;100.00
44144;BME280;43510;51.920;4.492;2023-02-04T17:19:01;67101.69;;;11.23;100.00
44144;BME280;43510;51.920;4.492;2023-02-04T17:21:28;67094.44;;;11.17;100.00
44144;BME280;43510;51.920;4.492;2023-02-04T17:23:58;67102.25;;;11.24;100.00
44144;BME280;43510;51.920;4.492;2023-02-04T17:26:28;67102.41;;;11.26;100.00
44144;BME280;43510;51.920;4.492;2023-02-04T17:28:53;67106.72;;;11.28;100.00